Time;durP1;ratioP1;P1;durP2;ratioP2;P2;SDS_P1;SDS_P2;PMS_P1;PMS_P2;Temp;Humidity;BMP_temperature;BMP_pressure;BME280_temperature;BME280_humidity;BME280_pressure;Samples;Min_cycle;Max_cycle;Signal;HPM_P1;HPM_P2
2022/05/28 00:01:39;;;;;;;;;;;;;;;18.93;44.04;99433.66;4354910;32;34861;-85
2022/05/28 00:04:08;;;;;;;;;;;;;;;19.26;42.77;99434.63;4360524;32;33023;-84
2022/05/28 00:06:36;;;;;;;;;;;;;;;19.17;43.01;99431.53;4354188;32;34541;-84
2022/05/28 00:09:05;;;;;;;;;;;;;;;19.38;42.58;99437.44;4354454;32;35007;-86
2022/05/28 00:11:35;;;;;;;;;;;;;;;19.39;42.55;99440.91;4354881;32;34175;-85
2022/05/28 00:14:05;;;;;;;;;;;;;;;19.59;42.22;99435.41;4345204;32;34326;-83
2022/05/28 00:16:33;;;;;;;;;;;;;;;19.45;42.22;99432.72;4359437;32;33549;-84
2022/05/28 00:19:03;;;;;;;;;;;;;;;19.51;42.49;99444.69;4356955;32;34153;-84
2022/05/28 00:21:32;;;;;;;;;;;;;;;19.61;42.08;99433.56;4357629;32;33942;-84
2022/05/28 00:24:00;;;;;;;;;;;;;;;19.54;42.47;99431.34;4356666;32;33802;-84
2022/05/28 00:26:29;;;;;;;;;;;;;;;19.48;42.56;99416.75;4353495;32;34711;-86
2022/05/28 00:28:57;;;;;;;;;;;;;;;19.60;41.74;99417.88;4352578;32;33741;-84
2022/05/28 00:31:28;;;;;;;;;;;;;;;19.33;41.98;99418.44;4355496;32;33565;-84
2022/05/28 00:33:56;;;;;;;;;;;;;;;19.28;42.07;99435.38;4355275;32;32210;-83
2022/05/28 00:36:25;;;;;;;;;;;;;;;18.73;43.16;99450.44;4357127;32;34930;-83
2022/05/28 00:38:54;;;;;;;;;;;;;;;18.88;42.72;99466.38;4356485;32;34154;-84
2022/05/28 00:41:22;;;;;;;;;;;;;;;18.87;43.12;99469.91;4359942;32;34747;-83
2022/05/28 00:43:51;;;;;;;;;;;;;;;18.83;43.09;99478.91;4361215;32;33107;-83
2022/05/28 00:46:22;;;;;;;;;;;;;;;18.62;43.61;99471.12;4351905;32;33957;-85
2022/05/28 00:48:53;;;;;;;;;;;;;;;18.73;42.60;99479.34;4355272;32;34152;-85
2022/05/28 00:51:22;;;;;;;;;;;;;;;18.47;43.28;99470.13;4356973;32;34429;-86
2022/05/28 00:53:50;;;;;;;;;;;;;;;18.26;43.32;99472.00;4356414;32;32764;-83
2022/05/28 00:56:21;;;;;;;;;;;;;;;18.65;42.63;99465.75;4362436;32;34457;-86
2022/05/28 00:58:50;;;;;;;;;;;;;;;18.36;43.24;99463.69;4356744;32;34325;-84
2022/05/28 01:01:19;;;;;;;;;;;;;;;18.59;42.88;99454.69;4356566;32;34973;-84
2022/05/28 01:03:54;;;;;;;;;;;;;;;18.32;43.33;99450.72;4356459;32;33913;-84
2022/05/28 01:06:26;;;;;;;;;;;;;;;18.12;44.07;99445.56;4356788;32;34824;-84
2022/05/28 01:08:56;;;;;;;;;;;;;;;18.06;44.36;99436.22;4362303;32;34945;-86
2022/05/28 01:11:31;;;;;;;;;;;;;;;18.19;44.15;99433.00;4360683;32;34135;-84
2022/05/28 01:14:02;;;;;;;;;;;;;;;18.10;44.43;99421.19;4354223;32;33994;-85
2022/05/28 01:16:32;;;;;;;;;;;;;;;18.17;44.25;99422.59;4351538;32;33427;-86
2022/05/28 01:19:04;;;;;;;;;;;;;;;18.20;44.08;99417.19;4358591;32;34721;-84
2022/05/28 01:21:35;;;;;;;;;;;;;;;18.19;44.28;99418.09;4350974;32;33968;-84
2022/05/28 01:24:05;;;;;;;;;;;;;;;17.87;45.21;99412.63;4361497;32;33763;-83
2022/05/28 01:26:42;;;;;;;;;;;;;;;18.19;44.53;99414.63;4355840;32;34525;-85
2022/05/28 01:29:11;;;;;;;;;;;;;;;17.89;45.33;99408.16;4347696;32;34007;-83
2022/05/28 01:31:40;;;;;;;;;;;;;;;17.51;46.26;99396.78;4356765;32;34916;-84
2022/05/28 01:34:08;;;;;;;;;;;;;;;17.70;46.19;99402.88;4356587;32;33334;-85
2022/05/28 01:36:38;;;;;;;;;;;;;;;18.05;45.26;99403.03;4357933;32;34169;-84
2022/05/28 01:39:07;;;;;;;;;;;;;;;17.73;45.99;99407.13;4361589;32;35121;-85
2022/05/28 01:41:36;;;;;;;;;;;;;;;18.09;45.55;99408.97;4356598;32;34040;-85
2022/05/28 01:44:07;;;;;;;;;;;;;;;18.40;44.47;99407.47;4350310;32;33935;-84
2022/05/28 01:46:36;;;;;;;;;;;;;;;18.25;45.13;99398.56;4354319;32;34952;-85
2022/05/28 01:49:04;;;;;;;;;;;;;;;18.41;44.73;99404.78;4361770;32;34925;-85
2022/05/28 01:51:33;;;;;;;;;;;;;;;18.35;44.95;99415.56;4358783;32;34535;-84
2022/05/28 01:54:11;;;;;;;;;;;;;;;18.11;46.03;99428.97;4349447;32;33351;-85
2022/05/28 01:56:42;;;;;;;;;;;;;;;18.01;45.97;99426.88;4347014;32;34812;-85
2022/05/28 01:59:13;;;;;;;;;;;;;;;18.11;45.63;99421.09;4356262;32;34329;-84
2022/05/28 02:01:41;;;;;;;;;;;;;;;18.13;45.98;99423.66;4353181;32;33739;-83
2022/05/28 02:04:11;;;;;;;;;;;;;;;17.74;46.65;99419.34;4358081;32;33046;-84
2022/05/28 02:06:40;;;;;;;;;;;;;;;17.89;46.69;99418.66;4356618;32;34889;-85
2022/05/28 02:09:10;;;;;;;;;;;;;;;17.81;47.13;99422.56;4355970;32;33942;-84
2022/05/28 02:11:42;;;;;;;;;;;;;;;17.75;47.40;99413.16;4356294;32;33843;-85
2022/05/28 02:14:11;;;;;;;;;;;;;;;17.53;48.19;99410.69;4354409;32;33370;-83
2022/05/28 02:16:44;;;;;;;;;;;;;;;17.58;48.23;99413.94;4360315;32;34165;-84
2022/05/28 02:19:13;;;;;;;;;;;;;;;17.64;47.90;99428.56;4343962;32;33888;-84
2022/05/28 02:21:43;;;;;;;;;;;;;;;17.41;48.95;99419.97;4341158;33;34803;-85
2022/05/28 02:24:12;;;;;;;;;;;;;;;17.49;48.63;99415.25;4345183;32;33054;-85
2022/05/28 02:26:43;;;;;;;;;;;;;;;17.59;48.59;99420.91;4347281;32;34573;-85
2022/05/28 02:29:12;;;;;;;;;;;;;;;17.64;48.63;99426.81;4347312;33;33193;-83
2022/05/28 02:31:43;;;;;;;;;;;;;;;17.58;48.88;99429.69;4342160;33;34647;-85
2022/05/28 02:34:11;;;;;;;;;;;;;;;17.54;48.75;99432.53;4342145;33;34080;-85
2022/05/28 02:36:40;;;;;;;;;;;;;;;17.70;48.59;99433.53;4341893;33;34682;-85
2022/05/28 02:39:09;;;;;;;;;;;;;;;17.73;48.42;99433.38;4342095;33;34315;-84
2022/05/28 02:41:38;;;;;;;;;;;;;;;17.66;48.67;99447.69;4353395;32;34756;-86
2022/05/28 02:44:06;;;;;;;;;;;;;;;17.33;49.14;99447.47;4351222;32;33619;-85
2022/05/28 02:46:35;;;;;;;;;;;;;;;17.28;49.81;99447.69;4356738;32;34851;-84
2022/05/28 02:49:07;;;;;;;;;;;;;;;17.45;49.38;99434.66;4354338;32;34155;-83
2022/05/28 02:51:37;;;;;;;;;;;;;;;16.91;50.96;99443.19;4349822;32;34534;-84
2022/05/28 02:54:06;;;;;;;;;;;;;;;17.18;50.48;99447.25;4347244;33;33104;-85
2022/05/28 02:56:35;;;;;;;;;;;;;;;17.21;50.22;99448.88;4352289;32;33895;-85
2022/05/28 02:59:03;;;;;;;;;;;;;;;17.19;50.43;99437.59;4356810;32;33965;-83
2022/05/28 03:01:33;;;;;;;;;;;;;;;17.24;50.23;99433.00;4356787;32;34810;-84
2022/05/28 03:04:02;;;;;;;;;;;;;;;17.36;49.99;99432.44;4357075;32;32812;-84
2022/05/28 03:06:33;;;;;;;;;;;;;;;17.19;50.52;99429.72;4356404;32;34117;-84
2022/05/28 03:09:01;;;;;;;;;;;;;;;17.30;50.27;99427.50;4362350;32;34000;-85
2022/05/28 03:11:30;;;;;;;;;;;;;;;17.25;50.57;99422.47;4356554;32;34117;-84
2022/05/28 03:13:58;;;;;;;;;;;;;;;17.11;51.11;99409.13;4355637;32;33690;-83
2022/05/28 03:16:27;;;;;;;;;;;;;;;16.91;50.85;99406.50;4343835;32;34112;-85
2022/05/28 03:18:56;;;;;;;;;;;;;;;16.94;51.08;99407.25;4361502;32;34574;-83
2022/05/28 03:21:25;;;;;;;;;;;;;;;16.71;51.37;99407.34;4360485;32;33841;-85
2022/05/28 03:23:55;;;;;;;;;;;;;;;16.89;51.19;99413.56;4356376;32;33768;-84
2022/05/28 03:26:24;;;;;;;;;;;;;;;16.84;51.10;99416.38;4355967;32;34926;-83
2022/05/28 03:28:53;;;;;;;;;;;;;;;16.84;51.09;99416.38;4355959;32;33684;-84
2022/05/28 03:31:21;;;;;;;;;;;;;;;16.90;51.39;99417.91;4361822;32;33832;-84
2022/05/28 03:33:50;;;;;;;;;;;;;;;16.66;51.64;99409.31;4356136;32;33579;-86
2022/05/28 03:36:19;;;;;;;;;;;;;;;16.81;51.19;99400.81;4356319;32;34198;-83
2022/05/28 03:38:47;;;;;;;;;;;;;;;16.81;51.23;99396.41;4357416;32;35153;-86
2022/05/28 03:41:17;;;;;;;;;;;;;;;16.59;51.44;99393.84;4356167;32;34037;-83
2022/05/28 03:43:46;;;;;;;;;;;;;;;16.57;51.41;99403.53;4357636;32;34067;-85
2022/05/28 03:46:21;;;;;;;;;;;;;;;16.87;50.49;99410.19;4355786;32;34119;-83
2022/05/28 03:48:50;;;;;;;;;;;;;;;16.71;50.90;99415.19;4357006;32;33994;-84
2022/05/28 03:51:18;;;;;;;;;;;;;;;16.52;51.67;99418.59;4356891;32;34451;-86
2022/05/28 03:53:47;;;;;;;;;;;;;;;16.51;51.63;99418.66;4347001;32;33116;-84
2022/05/28 03:56:20;;;;;;;;;;;;;;;16.51;51.95;99424.75;4357758;32;35249;-83
2022/05/28 03:58:50;;;;;;;;;;;;;;;16.86;51.14;99417.19;4362938;32;33031;-86
2022/05/28 04:01:19;;;;;;;;;;;;;;;16.78;51.55;99421.87;4358203;32;33831;-85
2022/05/28 04:03:47;;;;;;;;;;;;;;;16.99;51.05;99412.28;4358002;32;33380;-84
2022/05/28 04:06:16;;;;;;;;;;;;;;;17.13;50.41;99412.53;4357781;32;33539;-85
2022/05/28 04:08:45;;;;;;;;;;;;;;;17.05;50.79;99410.22;4357941;32;34968;-84
2022/05/28 04:11:14;;;;;;;;;;;;;;;17.07;50.67;99402.28;4363195;32;33765;-83
2022/05/28 04:13:44;;;;;;;;;;;;;;;16.77;51.36;99401.84;4356637;32;33881;-84
2022/05/28 04:16:12;;;;;;;;;;;;;;;17.24;49.86;99404.16;4357042;32;34055;-85
2022/05/28 04:18:43;;;;;;;;;;;;;;;17.09;50.29;99424.06;4357492;32;35082;-84
2022/05/28 04:21:11;;;;;;;;;;;;;;;16.88;50.89;99423.22;4352622;32;34977;-85
2022/05/28 04:23:40;;;;;;;;;;;;;;;17.17;50.27;99423.72;4357864;32;33560;-84
2022/05/28 04:26:08;;;;;;;;;;;;;;;17.21;50.39;99414.78;4343927;32;34729;-84
2022/05/28 04:28:37;;;;;;;;;;;;;;;17.37;50.20;99405.31;4357714;32;34194;-84
2022/05/28 04:31:07;;;;;;;;;;;;;;;17.21;50.27;99409.56;4358768;32;34246;-83
2022/05/28 04:33:36;;;;;;;;;;;;;;;17.57;49.68;99406.19;4360571;32;32597;-85
2022/05/28 04:36:05;;;;;;;;;;;;;;;17.57;49.31;99401.78;4363072;32;35026;-84
2022/05/28 04:38:33;;;;;;;;;;;;;;;17.67;48.92;99410.06;4354822;32;33741;-84
2022/05/28 04:41:02;;;;;;;;;;;;;;;17.19;50.04;99412.22;4351215;32;34155;-86
2022/05/28 04:43:34;;;;;;;;;;;;;;;17.24;50.06;99409.41;4352926;32;33316;-84
2022/05/28 04:46:02;;;;;;;;;;;;;;;17.57;49.37;99421.91;4344974;32;34940;-84
2022/05/28 04:48:33;;;;;;;;;;;;;;;17.36;49.73;99415.88;4355677;32;33842;-85
2022/05/28 04:51:02;;;;;;;;;;;;;;;17.27;50.18;99433.69;4357234;32;33517;-84
2022/05/28 04:53:30;;;;;;;;;;;;;;;17.55;49.35;99415.88;4357047;32;34013;-85
2022/05/28 04:55:59;;;;;;;;;;;;;;;17.61;49.38;99419.03;4357203;32;33873;-85
2022/05/28 04:58:28;;;;;;;;;;;;;;;17.75;49.14;99426.28;4362832;32;33803;-84
2022/05/28 05:00:57;;;;;;;;;;;;;;;17.54;49.32;99422.91;4358112;32;33680;-85
2022/05/28 05:03:25;;;;;;;;;;;;;;;17.61;49.02;99428.69;4342523;33;33006;-84
2022/05/28 05:05:55;;;;;;;;;;;;;;;17.80;48.24;99428.69;4341796;32;34057;-84
2022/05/28 05:08:24;;;;;;;;;;;;;;;17.59;48.42;99435.78;4341125;33;34551;-85
2022/05/28 05:10:53;;;;;;;;;;;;;;;17.81;48.23;99447.03;4342348;33;34419;-83
2022/05/28 05:13:21;;;;;;;;;;;;;;;18.04;47.71;99447.72;4348180;33;33478;-86
2022/05/28 05:15:50;;;;;;;;;;;;;;;17.96;47.44;99429.72;4355774;32;33940;-85
2022/05/28 05:18:18;;;;;;;;;;;;;;;18.26;46.72;99435.25;4357190;32;33844;-86
2022/05/28 05:20:47;;;;;;;;;;;;;;;18.06;46.73;99427.50;4355528;32;32617;-84
2022/05/28 05:23:18;;;;;;;;;;;;;;;18.28;46.25;99430.75;4357178;32;33034;-86
2022/05/28 05:25:47;;;;;;;;;;;;;;;18.01;46.75;99427.72;4362398;32;34769;-85
2022/05/28 05:28:16;;;;;;;;;;;;;;;18.11;46.56;99430.75;4357599;32;33762;-85
2022/05/28 05:30:44;;;;;;;;;;;;;;;18.38;45.86;99443.44;4356920;32;34343;-85
2022/05/28 05:33:13;;;;;;;;;;;;;;;18.38;45.45;99430.31;4356583;32;34046;-84
2022/05/28 05:35:41;;;;;;;;;;;;;;;18.67;45.17;99431.50;4355264;32;34771;-86
2022/05/28 05:38:10;;;;;;;;;;;;;;;18.63;45.25;99430.81;4362257;32;34310;-85
2022/05/28 05:40:40;;;;;;;;;;;;;;;18.74;45.17;99438.97;4356066;32;34814;-84
2022/05/28 05:43:09;;;;;;;;;;;;;;;18.54;46.14;99442.63;4355189;32;32611;-84
2022/05/28 05:45:38;;;;;;;;;;;;;;;18.62;45.52;99439.59;4355749;32;33893;-85
2022/05/28 05:48:07;;;;;;;;;;;;;;;18.87;44.55;99446.25;4363324;32;33905;-84
2022/05/28 05:50:36;;;;;;;;;;;;;;;18.95;43.82;99442.31;4358103;32;33619;-85
2022/05/28 05:53:05;;;;;;;;;;;;;;;18.95;43.64;99447.59;4357781;32;33051;-84
2022/05/28 05:55:34;;;;;;;;;;;;;;;18.80;43.29;99443.13;4355645;32;33724;-86
2022/05/28 05:58:04;;;;;;;;;;;;;;;18.85;43.79;99433.22;4355925;32;33972;-83
2022/05/28 06:00:32;;;;;;;;;;;;;;;18.95;43.34;99428.34;4355495;32;36075;-85
2022/05/28 06:03:02;;;;;;;;;;;;;;;19.16;45.13;99428.97;4341866;32;33730;-84
2022/05/28 06:05:31;;;;;;;;;;;;;;;19.14;46.13;99434.34;4361992;32;33560;-83
2022/05/28 06:07:59;;;;;;;;;;;;;;;19.21;46.20;99429.59;4354784;32;34262;-85
2022/05/28 06:10:30;;;;;;;;;;;;;;;19.55;45.38;99426.00;4356099;32;34910;-85
2022/05/28 06:12:59;;;;;;;;;;;;;;;19.75;44.53;99421.47;4348800;32;33583;-84
2022/05/28 06:15:28;;;;;;;;;;;;;;;19.58;42.87;99417.09;4356450;32;35015;-86
2022/05/28 06:17:57;;;;;;;;;;;;;;;19.32;44.52;99432.50;4346996;32;33635;-86
2022/05/28 06:20:26;;;;;;;;;;;;;;;19.61;42.70;99428.28;4325997;33;33321;-85
2022/05/28 06:22:54;;;;;;;;;;;;;;;19.73;41.32;99432.06;4340147;32;33281;-83
2022/05/28 06:25:23;;;;;;;;;;;;;;;19.94;41.74;99434.47;4340603;33;34061;-84
2022/05/28 06:27:51;;;;;;;;;;;;;;;20.17;40.61;99422.63;4341703;33;33808;-86
2022/05/28 06:30:20;;;;;;;;;;;;;;;19.98;38.00;99426.31;4346883;33;34831;-85
2022/05/28 06:32:50;;;;;;;;;;;;;;;20.16;38.28;99426.19;4340113;32;33069;-85
2022/05/28 06:35:19;;;;;;;;;;;;;;;20.01;38.17;99430.56;4341883;33;34089;-85
2022/05/28 06:37:49;;;;;;;;;;;;;;;19.85;39.58;99433.19;4341920;33;34264;-84
2022/05/28 06:40:18;;;;;;;;;;;;;;;20.14;41.05;99433.34;4351416;32;33769;-84
2022/05/28 06:42:47;;;;;;;;;;;;;;;20.12;39.87;99422.03;4342047;33;33606;-86
2022/05/28 06:45:16;;;;;;;;;;;;;;;20.28;42.19;99436.03;4278245;33;2112954;-86
2022/05/28 06:47:45;;;;;;;;;;;;;;;19.95;43.67;99428.25;4328657;33;33893;-85
2022/05/28 06:53:02;;;;;;;;;;;;;;;20.10;43.24;99431.81;4340536;33;33379;-85
2022/05/28 06:55:30;;;;;;;;;;;;;;;20.24;42.99;99437.13;4335579;32;32261;-87
2022/05/28 06:57:59;;;;;;;;;;;;;;;20.18;43.25;99430.44;4347991;32;34340;-85
2022/05/28 07:00:27;;;;;;;;;;;;;;;20.48;42.75;99437.50;4346256;32;34120;-84
2022/05/28 07:02:56;;;;;;;;;;;;;;;20.44;42.87;99439.50;4339995;32;33595;-84
2022/05/28 07:05:28;;;;;;;;;;;;;;;20.36;43.12;99443.50;4341941;33;34175;-85
2022/05/28 07:07:56;;;;;;;;;;;;;;;20.51;41.71;99447.88;4347193;33;33521;-85
2022/05/28 07:10:25;;;;;;;;;;;;;;;20.57;42.69;99449.34;4341706;33;33984;-86
2022/05/28 07:12:53;;;;;;;;;;;;;;;20.54;41.41;99452.97;4329641;32;32120;-87
2022/05/28 07:15:22;;;;;;;;;;;;;;;20.47;42.37;99459.53;4341409;33;34066;-87
2022/05/28 07:17:51;;;;;;;;;;;;;;;20.57;43.23;99457.25;4342534;32;34996;-86
2022/05/28 07:20:19;;;;;;;;;;;;;;;20.70;41.74;99460.84;4356097;32;32943;-86
2022/05/28 07:22:49;;;;;;;;;;;;;;;20.75;41.92;99461.44;4351730;32;35162;-84
2022/05/28 07:25:18;;;;;;;;;;;;;;;20.52;42.49;99468.03;4350519;32;33210;-85
2022/05/28 07:27:47;;;;;;;;;;;;;;;20.77;41.99;99464.00;4354033;32;34643;-84
2022/05/28 07:30:16;;;;;;;;;;;;;;;20.54;41.08;99462.66;4354527;32;33964;-85
2022/05/28 07:32:44;;;;;;;;;;;;;;;20.39;41.83;99473.16;4356141;32;33396;-86
2022/05/28 07:35:13;;;;;;;;;;;;;;;20.36;41.87;99473.31;4351509;32;34979;-85
2022/05/28 07:37:42;;;;;;;;;;;;;;;20.79;41.67;99478.78;4348182;32;34659;-85
2022/05/28 07:40:15;;;;;;;;;;;;;;;20.86;40.83;99479.28;4354970;32;34297;-86
2022/05/28 07:42:43;;;;;;;;;;;;;;;20.61;41.58;99478.06;4348380;32;33560;-84
2022/05/28 07:45:12;;;;;;;;;;;;;;;20.92;39.83;99488.59;4349748;32;33965;-86
2022/05/28 07:47:40;;;;;;;;;;;;;;;20.64;39.47;99485.78;4354455;32;34901;-85
2022/05/28 07:50:10;;;;;;;;;;;;;;;20.68;38.83;99481.19;4342774;32;34402;-85
2022/05/28 07:52:38;;;;;;;;;;;;;;;20.70;38.73;99484.56;4347550;32;33899;-84
2022/05/28 07:55:09;;;;;;;;;;;;;;;20.61;38.53;99493.00;4342549;32;34203;-85
2022/05/28 07:57:41;;;;;;;;;;;;;;;20.40;40.36;99481.91;4349367;32;34268;-84
2022/05/28 08:00:10;;;;;;;;;;;;;;;20.08;41.84;99491.59;4346698;33;34784;-86
2022/05/28 08:02:38;;;;;;;;;;;;;;;20.32;42.21;99487.62;4345009;32;33962;-85
2022/05/28 08:05:08;;;;;;;;;;;;;;;20.42;41.26;99490.56;4354986;32;34210;-85
2022/05/28 08:07:36;;;;;;;;;;;;;;;20.64;40.25;99491.06;4355319;32;34625;-86
2022/05/28 08:10:05;;;;;;;;;;;;;;;20.70;41.55;99489.00;4356092;32;34253;-87
2022/05/28 08:12:34;;;;;;;;;;;;;;;20.89;39.58;99489.63;4361316;32;33497;-85
2022/05/28 08:15:04;;;;;;;;;;;;;;;20.88;40.03;99487.94;4356377;32;34225;-85
2022/05/28 08:17:33;;;;;;;;;;;;;;;21.04;37.09;99487.88;4352151;32;34070;-89
2022/05/28 08:20:01;;;;;;;;;;;;;;;21.06;38.34;99481.56;4353972;32;33631;-85
2022/05/28 08:25:16;;;;;;;;;;;;;;;20.73;38.01;99494.97;4342278;32;33131;-85
2022/05/28 08:27:44;;;;;;;;;;;;;;;20.71;38.62;99499.47;4346547;33;34891;-85
2022/05/28 08:30:18;;;;;;;;;;;;;;;20.79;38.11;99489.31;4345994;32;34039;-85
2022/05/28 08:32:46;;;;;;;;;;;;;;;20.95;37.69;99494.56;4354503;32;33068;-84
2022/05/28 08:35:16;;;;;;;;;;;;;;;21.20;37.87;99509.75;4356433;32;34162;-85
2022/05/28 08:37:44;;;;;;;;;;;;;;;21.38;36.24;99499.03;4357743;32;34263;-86
2022/05/28 08:40:13;;;;;;;;;;;;;;;21.35;36.68;99500.06;4348472;33;34346;-85
2022/05/28 08:42:42;;;;;;;;;;;;;;;21.53;34.77;99498.13;4342898;33;33892;-85
2022/05/28 08:45:10;;;;;;;;;;;;;;;21.74;33.65;99483.56;4355634;32;34284;-86
2022/05/28 08:47:41;;;;;;;;;;;;;;;21.74;35.07;99495.94;4355910;32;35093;-85
2022/05/28 08:50:11;;;;;;;;;;;;;;;21.80;32.94;99486.81;4353743;32;34209;-85
2022/05/28 08:52:41;;;;;;;;;;;;;;;21.69;34.41;99490.94;4353864;32;33963;-85
2022/05/28 08:55:11;;;;;;;;;;;;;;;21.73;33.75;99495.09;4353454;32;33754;-85
2022/05/28 08:57:47;;;;;;;;;;;;;;;21.84;33.59;99488.28;4353145;32;34116;-86
2022/05/28 09:00:17;;;;;;;;;;;;;;;21.80;33.56;99481.53;4357548;32;34422;-85
2022/05/28 09:02:49;;;;;;;;;;;;;;;21.81;34.00;99477.94;4358414;32;33664;-86
2022/05/28 09:05:22;;;;;;;;;;;;;;;22.11;35.09;99485.72;4350523;32;34156;-87
2022/05/28 09:07:51;;;;;;;;;;;;;;;22.10;33.21;99484.84;4356361;32;33774;-86
2022/05/28 09:10:19;;;;;;;;;;;;;;;22.19;32.99;99480.75;4357502;32;34652;-86
2022/05/28 09:12:50;;;;;;;;;;;;;;;22.40;33.42;99478.56;4357541;32;33469;-86
2022/05/28 09:15:18;;;;;;;;;;;;;;;22.32;33.27;99462.34;4345143;32;34101;-85
2022/05/28 09:17:48;;;;;;;;;;;;;;;22.71;33.36;99466.81;4340955;33;33930;-85
2022/05/28 09:20:21;;;;;;;;;;;;;;;22.52;33.48;99466.31;4357670;32;34374;-86
2022/05/28 09:22:50;;;;;;;;;;;;;;;22.48;33.56;99464.84;4356773;32;34540;-86
2022/05/28 09:25:19;;;;;;;;;;;;;;;22.24;34.52;99464.66;4341199;33;33958;-86
2022/05/28 09:27:49;;;;;;;;;;;;;;;22.53;33.54;99473.31;4343751;32;34033;-86
2022/05/28 09:30:24;;;;;;;;;;;;;;;22.54;35.11;99472.34;4351445;32;35791;-85
2022/05/28 09:32:58;;;;;;;;;;;;;;;22.40;34.58;99469.75;4353042;32;33825;-85
2022/05/28 09:35:40;;;;;;;;;;;;;;;22.33;34.72;99464.06;4362108;32;34592;-87
2022/05/28 09:38:11;;;;;;;;;;;;;;;22.61;33.70;99462.22;4342555;33;34802;-85
2022/05/28 09:40:41;;;;;;;;;;;;;;;22.41;34.71;99466.19;4342658;33;34309;-85
2022/05/28 09:43:16;;;;;;;;;;;;;;;22.30;34.37;99469.53;4342668;32;33678;-87
2022/05/28 09:45:46;;;;;;;;;;;;;;;22.06;35.32;99475.44;4341710;33;34920;-86
2022/05/28 09:48:19;;;;;;;;;;;;;;;21.82;35.79;99475.19;4342557;33;34328;-86
2022/05/28 09:50:48;;;;;;;;;;;;;;;22.04;37.09;99468.56;4347805;33;33855;-86
2022/05/28 09:56:10;;;;;;;;;;;;;;;22.29;36.09;99489.81;4342544;33;34125;-85
2022/05/28 09:58:40;;;;;;;;;;;;;;;22.19;35.56;99493.13;4342440;33;33647;-85
2022/05/28 10:01:10;;;;;;;;;;;;;;;22.24;36.17;99480.50;4342249;33;34378;-85
2022/05/28 10:06:27;;;;;;;;;;;;;;;22.29;36.49;99479.25;4346775;33;33835;-86
2022/05/28 10:08:55;;;;;;;;;;;;;;;22.21;36.52;99473.63;4342245;33;34310;-85
2022/05/28 10:11:24;;;;;;;;;;;;;;;22.03;36.34;99474.75;4340926;33;34250;-86
2022/05/28 10:13:53;;;;;;;;;;;;;;;21.78;36.74;99462.28;4345863;32;33001;-87
2022/05/28 10:16:22;;;;;;;;;;;;;;;22.04;37.04;99464.12;4357249;32;34715;-85
2022/05/28 10:19:17;;;;;;;;;;;;;;;22.54;37.14;99459.13;4357394;32;33921;-86
2022/05/28 10:21:48;;;;;;;;;;;;;;;22.96;34.53;99457.22;4362063;32;33781;-86
2022/05/28 10:24:17;;;;;;;;;;;;;;;22.57;35.55;99457.16;4341919;32;33408;-86
2022/05/28 10:26:46;;;;;;;;;;;;;;;22.63;35.36;99444.47;4342411;33;34217;-85
2022/05/28 10:29:18;;;;;;;;;;;;;;;22.59;36.04;99449.09;4342283;33;35120;-85
2022/05/28 10:31:47;;;;;;;;;;;;;;;22.57;35.50;99445.72;4342168;33;33769;-86
2022/05/28 10:34:28;;;;;;;;;;;;;;;22.48;34.39;99443.69;4343514;33;34236;-84
2022/05/28 10:37:05;;;;;;;;;;;;;;;22.17;33.83;99445.66;4348214;33;33558;-87
2022/05/28 10:39:34;;;;;;;;;;;;;;;21.86;34.39;99446.78;4342196;33;34348;-86
2022/05/28 10:42:05;;;;;;;;;;;;;;;22.08;34.38;99440.97;4342127;33;34249;-86
2022/05/28 10:44:34;;;;;;;;;;;;;;;22.23;34.74;99444.44;4345680;32;33257;-85
2022/05/28 10:47:20;;;;;;;;;;;;;;;22.57;32.93;99435.16;4342233;32;34325;-86
2022/05/28 10:49:52;;;;;;;;;;;;;;;22.56;33.14;99444.00;4343477;32;34219;-86
2022/05/28 10:52:24;;;;;;;;;;;;;;;22.66;32.58;99433.66;4354599;32;34235;-86
2022/05/28 10:54:56;;;;;;;;;;;;;;;22.88;32.35;99436.56;4356692;32;33339;-85
2022/05/28 10:57:40;;;;;;;;;;;;;;;22.67;33.05;99430.94;4356795;32;33888;-86
2022/05/28 11:00:11;;;;;;;;;;;;;;;22.60;33.45;99432.28;4350518;32;33713;-84
2022/05/28 11:02:45;;;;;;;;;;;;;;;22.56;31.74;99428.16;4356351;32;34290;-85
2022/05/28 11:05:18;;;;;;;;;;;;;;;22.55;32.09;99426.47;4356861;32;33472;-86
2022/05/28 11:07:57;;;;;;;;;;;;;;;22.33;33.05;99427.06;4362271;32;34933;-85
2022/05/28 11:10:34;;;;;;;;;;;;;;;22.54;31.54;99419.47;4356539;32;34997;-85
2022/05/28 11:13:18;;;;;;;;;;;;;;;22.43;32.80;99422.00;4357017;32;34311;-85
2022/05/28 11:15:58;;;;;;;;;;;;;;;22.42;30.77;99425.56;4345842;32;32737;-85
2022/05/28 11:18:32;;;;;;;;;;;;;;;22.02;30.95;99422.91;4356103;32;34171;-87
2022/05/28 11:21:07;;;;;;;;;;;;;;;21.93;30.59;99424.31;4355541;32;33533;-87
2022/05/28 11:23:39;;;;;;;;;;;;;;;22.05;29.95;99423.53;4354281;32;33766;-85
2022/05/28 11:26:09;;;;;;;;;;;;;;;22.06;29.81;99413.81;4361894;32;32815;-86
2022/05/28 11:28:56;;;;;;;;;;;;;;;22.09;29.66;99413.63;4357318;32;33154;-87
2022/05/28 11:31:28;;;;;;;;;;;;;;;21.93;29.83;99416.41;4350018;32;34117;-85
2022/05/28 11:33:57;;;;;;;;;;;;;;;22.02;30.02;99413.16;4356477;32;34195;-87
2022/05/28 11:36:27;;;;;;;;;;;;;;;22.14;29.34;99404.44;4356287;32;33233;-86
2022/05/28 11:38:57;;;;;;;;;;;;;;;22.16;30.42;99399.06;4356421;32;33517;-84
2022/05/28 11:41:26;;;;;;;;;;;;;;;22.51;30.45;99404.66;4361824;32;34679;-85
2022/05/28 11:43:57;;;;;;;;;;;;;;;22.84;29.52;99398.06;4356194;32;34041;-87
2022/05/28 11:46:27;;;;;;;;;;;;;;;22.90;29.71;99410.00;4356226;32;33475;-87
2022/05/28 11:51:47;;;;;;;;;;;;;;;22.54;29.05;99398.31;4355514;32;34155;-86
2022/05/28 11:54:17;;;;;;;;;;;;;;;22.63;28.34;99389.78;4356260;32;34704;-85
2022/05/28 11:56:47;;;;;;;;;;;;;;;22.52;28.57;99390.50;4361483;32;34094;-85
2022/05/28 11:59:16;;;;;;;;;;;;;;;22.39;29.37;99384.34;4344988;32;33741;-86
2022/05/28 12:01:46;;;;;;;;;;;;;;;22.72;30.09;99377.75;4341282;33;34795;-85
2022/05/28 12:04:15;;;;;;;;;;;;;;;22.30;29.63;99379.66;4341210;33;33940;-86
2022/05/28 12:06:48;;;;;;;;;;;;;;;22.22;30.73;99376.69;4341048;33;33388;-86
2022/05/28 12:09:21;;;;;;;;;;;;;;;22.34;30.41;99376.72;4347239;33;34207;-85
2022/05/28 12:11:53;;;;;;;;;;;;;;;22.64;30.49;99380.03;4342928;33;34320;-85
2022/05/28 12:14:24;;;;;;;;;;;;;;;21.95;27.12;99366.97;4343320;33;33767;-85
2022/05/28 12:16:59;;;;;;;;;;;;;;;21.56;27.91;99373.88;4343428;32;33030;-84
2022/05/28 12:19:28;;;;;;;;;;;;;;;21.48;27.21;99376.13;4358497;32;33761;-85
2022/05/28 12:22:07;;;;;;;;;;;;;;;21.51;26.79;99371.53;4348058;32;34194;-85
2022/05/28 12:24:41;;;;;;;;;;;;;;;21.63;27.11;99369.06;4362349;32;35010;-87
2022/05/28 12:27:21;;;;;;;;;;;;;;;21.84;27.45;99365.03;4357471;32;32682;-86
2022/05/28 12:29:58;;;;;;;;;;;;;;;21.88;27.26;99373.59;4357977;32;34915;-87
2022/05/28 12:32:27;;;;;;;;;;;;;;;21.89;27.92;99368.22;4357489;32;34371;-85
2022/05/28 12:34:56;;;;;;;;;;;;;;;21.64;28.19;99376.87;4357808;32;34253;-84
2022/05/28 12:37:27;;;;;;;;;;;;;;;21.94;28.29;99370.56;4362985;32;33979;-84
2022/05/28 12:39:58;;;;;;;;;;;;;;;21.92;28.04;99370.66;4357762;32;34028;-86
2022/05/28 12:42:29;;;;;;;;;;;;;;;21.69;26.42;99369.50;4359478;32;34567;-86
2022/05/28 12:45:20;;;;;;;;;;;;;;;21.27;27.45;99363.34;4358663;32;33618;-85
2022/05/28 12:47:49;;;;;;;;;;;;;;;21.48;28.19;99365.59;4357681;32;33789;-84
2022/05/28 12:50:21;;;;;;;;;;;;;;;21.59;28.74;99362.28;4357646;32;34638;-86
2022/05/28 12:52:54;;;;;;;;;;;;;;;21.53;28.36;99352.97;4362743;32;34216;-86
2022/05/28 12:55:35;;;;;;;;;;;;;;;20.95;28.27;99353.91;4363091;32;34058;-84
2022/05/28 12:58:05;;;;;;;;;;;;;;;21.17;27.80;99351.66;4357942;32;33533;-85
2022/05/28 13:00:42;;;;;;;;;;;;;;;20.96;27.78;99342.44;4357962;32;34332;-86
2022/05/28 13:03:12;;;;;;;;;;;;;;;21.08;27.93;99342.53;4357501;32;34086;-85
2022/05/28 13:05:42;;;;;;;;;;;;;;;21.11;28.15;99341.47;4356795;32;34705;-86
2022/05/28 13:08:12;;;;;;;;;;;;;;;21.17;27.98;99335.00;4348474;33;32894;-86
2022/05/28 13:10:45;;;;;;;;;;;;;;;21.42;27.27;99329.87;4347580;33;34280;-85
2022/05/28 13:13:21;;;;;;;;;;;;;;;21.31;28.12;99334.94;4342867;33;33606;-87
2022/05/28 13:16:08;;;;;;;;;;;;;;;21.72;27.65;99324.44;4329496;33;32462;-85
2022/05/28 13:18:41;;;;;;;;;;;;;;;21.86;27.27;99325.31;4338061;33;33931;-87